createdAt,value
2022-10-25T00:00:05.654Z,10.00
2022-10-25T00:01:30.533Z,10.00
2022-10-25T00:02:36.678Z,10.00
2022-10-25T00:03:38.445Z,10.00
2022-10-25T00:04:40.252Z,10.00
2022-10-25T00:05:42.653Z,10.00
2022-10-25T00:06:44.855Z,10.00
2022-10-25T00:07:46.744Z,10.00
2022-10-25T00:08:49.214Z,10.00
2022-10-25T00:09:50.947Z,9.90
2022-10-25T00:10:52.676Z,9.90
2022-10-25T00:11:54.525Z,9.90
2022-10-25T00:12:56.473Z,10.00
2022-10-25T00:14:02.775Z,9.90
2022-10-25T00:15:04.904Z,9.80
2022-10-25T00:16:12.820Z,9.90
2022-10-25T00:17:14.530Z,9.90
2022-10-25T00:18:16.189Z,9.90
2022-10-25T00:19:17.877Z,9.80
2022-10-25T00:20:19.623Z,9.80
2022-10-25T00:21:21.558Z,9.80
2022-10-25T00:22:23.511Z,9.90
2022-10-25T00:23:25.181Z,9.90
2022-10-25T00:24:26.907Z,9.90
2022-10-25T00:25:28.593Z,9.90
2022-10-25T00:26:30.272Z,9.80
2022-10-25T00:27:32.033Z,9.80
2022-10-25T00:28:33.920Z,9.80
2022-10-25T00:29:35.658Z,9.80
2022-10-25T00:30:37.367Z,9.80
2022-10-25T00:31:39.085Z,9.80
2022-10-25T00:32:40.882Z,9.80
2022-10-25T00:33:44.987Z,9.80
2022-10-25T00:34:46.921Z,9.80
2022-10-25T00:35:48.577Z,9.80
2022-10-25T00:36:50.341Z,9.70
2022-10-25T00:37:52.085Z,9.70
2022-10-25T00:38:56.521Z,9.70
2022-10-25T00:39:58.301Z,9.70
2022-10-25T00:41:00.543Z,9.70
2022-10-25T00:42:02.753Z,9.60
2022-10-25T00:43:04.426Z,9.70
2022-10-25T00:44:45.474Z,9.70
2022-10-25T00:45:47.191Z,9.70
2022-10-25T00:46:48.926Z,9.70
2022-10-25T00:48:02.851Z,9.60
2022-10-25T00:49:12.774Z,9.70
2022-10-25T00:50:33.941Z,9.70
2022-10-25T00:51:44.705Z,9.70
2022-10-25T00:52:48.958Z,9.60
2022-10-25T00:53:50.845Z,9.70
2022-10-25T00:54:53.982Z,9.70
2022-10-25T00:56:16.792Z,9.70
2022-10-25T00:57:41.315Z,9.60
2022-10-25T00:58:47.194Z,9.60
2022-10-25T00:59:49.255Z,9.60
2022-10-25T01:00:51.122Z,9.60
2022-10-25T01:01:55.063Z,9.60
2022-10-25T01:04:09.343Z,9.60
2022-10-25T01:05:11.450Z,9.60
2022-10-25T01:06:20.049Z,9.60
2022-10-25T01:07:21.791Z,9.60
2022-10-25T01:08:24.598Z,9.60
2022-10-25T01:09:30.175Z,9.60
2022-10-25T01:10:32.146Z,9.60
2022-10-25T01:11:36.084Z,9.60
2022-10-25T01:12:37.870Z,9.60
2022-10-25T01:13:39.942Z,9.50
2022-10-25T01:14:45.132Z,9.50
2022-10-25T01:16:33.294Z,9.50
2022-10-25T01:18:07.443Z,9.50
2022-10-25T01:19:30.751Z,9.50
2022-10-25T01:20:46.231Z,9.50
2022-10-25T01:21:50.710Z,9.50
2022-10-25T01:22:55.234Z,9.50
2022-10-25T01:24:19.051Z,9.50
2022-10-25T01:25:39.502Z,9.60
2022-10-25T01:26:55.991Z,9.60
2022-10-25T01:28:19.255Z,9.60
2022-10-25T01:30:05.573Z,9.60
2022-10-25T01:31:28.724Z,9.60
2022-10-25T01:32:39.403Z,9.60
2022-10-25T01:33:54.131Z,9.60
2022-10-25T01:35:05.070Z,9.60
2022-10-25T01:36:28.773Z,9.60
2022-10-25T01:37:55.226Z,9.50
2022-10-25T01:39:30.941Z,9.60
2022-10-25T01:40:49.279Z,9.60
2022-10-25T01:42:06.258Z,9.50
2022-10-25T01:43:28.608Z,9.50
2022-10-25T01:44:42.321Z,9.50
2022-10-25T01:46:01.090Z,9.50
2022-10-25T01:47:09.723Z,9.50
2022-10-25T01:48:36.068Z,9.50
2022-10-25T01:50:10.203Z,9.50
2022-10-25T01:51:17.142Z,9.50
2022-10-25T01:52:21.339Z,9.50
2022-10-25T01:53:23.062Z,9.50
2022-10-25T01:54:26.519Z,9.50
2022-10-25T01:55:37.052Z,9.50
2022-10-25T01:56:58.099Z,9.50
2022-10-25T01:58:21.442Z,9.40
2022-10-25T01:59:34.438Z,9.40
2022-10-25T02:00:53.732Z,9.40
2022-10-25T02:02:27.079Z,9.40
2022-10-25T02:03:42.143Z,9.40
2022-10-25T02:04:50.198Z,9.40
2022-10-25T02:06:04.011Z,9.40
2022-10-25T02:07:11.714Z,9.40
2022-10-25T02:08:22.578Z,9.50
2022-10-25T02:09:31.682Z,9.40
2022-10-25T02:10:41.834Z,9.40
2022-10-25T02:11:43.690Z,9.40
2022-10-25T02:12:54.316Z,9.30
2022-10-25T02:13:59.354Z,9.30
2022-10-25T02:15:15.131Z,9.30
2022-10-25T02:16:25.709Z,9.30
2022-10-25T02:17:28.408Z,9.30
2022-10-25T02:18:33.923Z,9.30
2022-10-25T02:19:54.583Z,9.30
2022-10-25T02:20:58.671Z,9.30
2022-10-25T02:22:02.207Z,9.30
2022-10-25T02:23:06.321Z,9.30
2022-10-25T02:24:13.367Z,9.30
2022-10-25T02:25:16.731Z,9.30
2022-10-25T02:26:19.669Z,9.30
2022-10-25T02:27:23.306Z,9.30
2022-10-25T02:28:28.605Z,9.30
2022-10-25T02:29:32.718Z,9.30
2022-10-25T02:30:36.709Z,9.30
2022-10-25T02:31:38.975Z,9.30
2022-10-25T02:32:40.664Z,9.30
2022-10-25T02:33:47.957Z,9.30
2022-10-25T02:34:50.948Z,9.30
2022-10-25T02:36:14.271Z,9.30
2022-10-25T02:37:16.670Z,9.30
2022-10-25T02:38:18.391Z,9.30
2022-10-25T02:39:25.417Z,9.20
2022-10-25T02:40:30.045Z,9.20
2022-10-25T02:41:31.814Z,9.20
2022-10-25T02:42:33.496Z,9.20
2022-10-25T02:43:35.486Z,9.20
2022-10-25T02:44:37.175Z,9.20
2022-10-25T02:45:38.828Z,9.20
2022-10-25T02:46:40.561Z,9.20
2022-10-25T02:47:42.218Z,9.20
2022-10-25T02:48:44.246Z,9.20
2022-10-25T02:49:45.979Z,9.10
2022-10-25T02:50:48.401Z,9.20
2022-10-25T02:52:56.740Z,9.20
2022-10-25T02:53:58.874Z,9.20
2022-10-25T02:55:00.584Z,9.10
2022-10-25T02:56:07.779Z,9.10
2022-10-25T02:57:09.508Z,9.10
2022-10-25T02:58:11.209Z,9.10
2022-10-25T02:59:13.054Z,9.00
2022-10-25T03:00:15.370Z,9.00
2022-10-25T03:01:18.834Z,9.10
2022-10-25T03:02:20.688Z,9.10
2022-10-25T03:03:22.507Z,9.10
2022-10-25T03:04:24.236Z,9.10
2022-10-25T03:05:25.988Z,9.10
2022-10-25T03:06:27.755Z,9.00
2022-10-25T03:07:29.523Z,9.00
2022-10-25T03:08:31.368Z,9.00
2022-10-25T03:09:33.867Z,9.00
2022-10-25T03:10:37.544Z,9.00
2022-10-25T03:11:39.332Z,9.00
2022-10-25T03:12:41.169Z,9.00
2022-10-25T03:13:42.945Z,9.00
2022-10-25T03:14:44.747Z,9.00
2022-10-25T03:15:47.268Z,8.90
2022-10-25T03:16:48.976Z,9.00
2022-10-25T03:17:50.797Z,8.90
2022-10-25T03:18:52.613Z,8.90
2022-10-25T03:19:54.416Z,8.90
2022-10-25T03:21:01.407Z,8.90
2022-10-25T03:22:03.311Z,8.90
2022-10-25T03:23:05.387Z,8.90
2022-10-25T03:24:10.258Z,8.90
2022-10-25T03:25:12.007Z,8.90
2022-10-25T03:26:13.702Z,8.80
2022-10-25T03:27:15.372Z,8.80
2022-10-25T03:28:17.074Z,8.80
2022-10-25T03:29:18.856Z,8.80
2022-10-25T03:30:20.794Z,8.80
2022-10-25T03:31:22.467Z,8.80
2022-10-25T03:32:24.136Z,8.80
2022-10-25T03:33:26.722Z,8.80
2022-10-25T03:34:28.498Z,8.80
2022-10-25T03:35:30.776Z,8.70
2022-10-25T03:36:32.456Z,8.70
2022-10-25T03:37:34.173Z,8.70
2022-10-25T03:38:35.958Z,8.60
2022-10-25T03:39:37.621Z,8.70
2022-10-25T03:40:39.300Z,8.70
2022-10-25T03:41:41.068Z,8.70
2022-10-25T03:42:42.915Z,8.70
2022-10-25T03:43:44.594Z,8.70
2022-10-25T03:44:46.411Z,8.70
2022-10-25T03:45:48.266Z,8.70
2022-10-25T03:46:49.972Z,8.70
2022-10-25T03:47:52.124Z,8.70
2022-10-25T03:48:53.777Z,8.70
2022-10-25T03:49:55.429Z,8.70
2022-10-25T03:50:57.135Z,8.70
2022-10-25T03:52:01.284Z,8.70
2022-10-25T03:53:06.340Z,8.70
2022-10-25T03:54:08.038Z,8.70
2022-10-25T03:55:10.280Z,8.70
2022-10-25T03:56:12.017Z,8.70
2022-10-25T03:57:13.770Z,8.60
2022-10-25T03:58:16.165Z,8.60
2022-10-25T03:59:17.856Z,8.60
2022-10-25T04:00:19.684Z,8.60
2022-10-25T04:01:21.435Z,8.60
2022-10-25T04:02:23.502Z,8.60
2022-10-25T04:03:25.345Z,8.60
2022-10-25T04:04:27.158Z,8.60
2022-10-25T04:05:29.338Z,8.60
2022-10-25T04:06:31.018Z,8.60
2022-10-25T04:07:32.706Z,8.60
2022-10-25T04:08:34.391Z,8.50
2022-10-25T04:09:36.122Z,8.50
2022-10-25T04:10:37.780Z,8.60
2022-10-25T04:11:39.467Z,8.50
2022-10-25T04:12:41.196Z,8.50
2022-10-25T04:13:42.943Z,8.50
2022-10-25T04:14:44.700Z,8.50
2022-10-25T04:15:46.378Z,8.60
2022-10-25T04:16:48.695Z,8.50
2022-10-25T04:17:51.224Z,8.50
2022-10-25T04:18:53.678Z,8.50
2022-10-25T04:19:55.355Z,8.50
2022-10-25T04:21:00.576Z,8.50
2022-10-25T04:22:02.629Z,8.50
2022-10-25T04:23:04.324Z,8.50
2022-10-25T04:24:06.134Z,8.40
2022-10-25T04:25:08.335Z,8.50
2022-10-25T04:26:10.123Z,8.50
2022-10-25T04:27:11.923Z,8.50
2022-10-25T04:28:13.588Z,8.50
2022-10-25T04:29:17.378Z,8.50
2022-10-25T04:30:19.546Z,8.40
2022-10-25T04:31:22.465Z,8.50
2022-10-25T04:32:24.305Z,8.40
2022-10-25T04:33:26.062Z,8.40
2022-10-25T04:34:27.827Z,8.40
2022-10-25T04:35:29.533Z,8.40
2022-10-25T04:36:31.501Z,8.40
2022-10-25T04:37:33.229Z,8.40
2022-10-25T04:38:35.131Z,8.40
2022-10-25T04:39:36.813Z,8.40
2022-10-25T04:40:38.480Z,8.30
2022-10-25T04:41:40.298Z,8.30
2022-10-25T04:42:42.046Z,8.40
2022-10-25T04:43:44.980Z,8.30
2022-10-25T04:44:46.644Z,8.30
2022-10-25T04:45:48.641Z,8.30
2022-10-25T04:46:51.675Z,8.30
2022-10-25T04:47:53.372Z,8.30
2022-10-25T04:48:55.076Z,8.30
2022-10-25T04:49:56.752Z,8.30
2022-10-25T04:51:01.441Z,8.30
2022-10-25T04:52:03.434Z,8.20
2022-10-25T04:53:05.657Z,8.20
2022-10-25T04:54:07.902Z,8.20
2022-10-25T04:55:09.664Z,8.20
2022-10-25T04:56:14.318Z,8.20
2022-10-25T04:57:16.007Z,8.20
2022-10-25T04:58:17.714Z,8.20
2022-10-25T04:59:19.829Z,8.30
2022-10-25T05:00:21.618Z,8.30
2022-10-25T05:01:23.342Z,8.20
2022-10-25T05:02:25.061Z,8.30
2022-10-25T05:03:27.413Z,8.20
2022-10-25T05:04:29.119Z,8.20
2022-10-25T05:05:30.836Z,8.20
2022-10-25T05:06:32.546Z,8.20
2022-10-25T05:07:34.232Z,8.20
2022-10-25T05:08:39.990Z,8.20
2022-10-25T05:09:43.911Z,8.20
2022-10-25T05:10:55.281Z,8.20
2022-10-25T05:11:56.967Z,8.20
2022-10-25T05:12:58.692Z,8.20
2022-10-25T05:14:00.419Z,8.10
2022-10-25T05:15:02.162Z,8.10
2022-10-25T05:16:04.470Z,8.20
2022-10-25T05:17:06.406Z,8.10
2022-10-25T05:18:08.042Z,8.20
2022-10-25T05:19:09.731Z,8.10
2022-10-25T05:20:11.453Z,8.10
2022-10-25T05:21:14.207Z,8.10
2022-10-25T05:22:15.916Z,8.10
2022-10-25T05:23:17.571Z,8.10
2022-10-25T05:24:19.364Z,8.10
2022-10-25T05:25:21.630Z,8.00
2022-10-25T05:26:23.332Z,8.00
2022-10-25T05:27:25.003Z,8.10
2022-10-25T05:28:26.670Z,8.10
2022-10-25T05:29:28.444Z,8.10
2022-10-25T05:30:30.127Z,8.00
2022-10-25T05:31:31.895Z,7.90
2022-10-25T05:32:33.810Z,8.00
2022-10-25T05:33:35.947Z,8.00
2022-10-25T05:34:37.655Z,8.00
2022-10-25T05:35:39.314Z,8.00
2022-10-25T05:36:41.071Z,8.00
2022-10-25T05:37:42.744Z,8.00
2022-10-25T05:38:44.485Z,8.00
2022-10-25T05:39:46.149Z,7.90
2022-10-25T05:42:06.378Z,8.00
2022-10-25T05:43:08.113Z,8.00
2022-10-25T05:44:10.076Z,8.00
2022-10-25T05:45:11.728Z,8.00
2022-10-25T05:46:21.935Z,8.00
2022-10-25T05:47:23.619Z,8.00
2022-10-25T05:48:25.326Z,8.00
2022-10-25T05:49:26.974Z,8.00
2022-10-25T05:50:28.732Z,8.00
2022-10-25T05:51:35.151Z,7.90
2022-10-25T05:52:42.441Z,7.90
2022-10-25T05:53:52.807Z,7.90
2022-10-25T05:54:54.469Z,8.00
2022-10-25T05:56:00.047Z,7.90
2022-10-25T05:57:01.822Z,7.90
2022-10-25T05:58:03.986Z,7.90
2022-10-25T05:59:09.086Z,7.90
2022-10-25T06:00:11.635Z,7.90
2022-10-25T06:01:16.229Z,7.90
2022-10-25T06:02:18.102Z,7.90
2022-10-25T06:03:19.931Z,7.90
2022-10-25T06:04:21.763Z,7.90
2022-10-25T06:05:23.473Z,7.90
2022-10-25T06:06:25.170Z,7.90
2022-10-25T06:07:26.885Z,7.90
2022-10-25T06:08:29.784Z,7.90
2022-10-25T06:09:31.515Z,7.90
2022-10-25T06:10:33.211Z,7.90
2022-10-25T06:11:36.395Z,8.00
2022-10-25T06:12:38.035Z,7.90
2022-10-25T06:13:39.843Z,8.00
2022-10-25T06:14:41.561Z,8.00
2022-10-25T06:15:43.264Z,8.00
2022-10-25T06:16:44.912Z,7.90
2022-10-25T06:17:46.589Z,7.90
2022-10-25T06:18:48.630Z,7.90
2022-10-25T06:19:50.274Z,7.90
2022-10-25T06:20:52.136Z,7.90
2022-10-25T06:21:56.720Z,7.90
2022-10-25T06:22:58.387Z,7.90
2022-10-25T06:24:00.332Z,7.90
2022-10-25T06:25:02.057Z,7.90
2022-10-25T06:26:07.904Z,8.00
2022-10-25T06:27:09.609Z,7.90
2022-10-25T06:28:11.433Z,7.90
2022-10-25T06:29:13.112Z,7.90
2022-10-25T06:30:14.829Z,7.90
2022-10-25T06:31:18.587Z,7.90
2022-10-25T06:32:20.561Z,8.00
2022-10-25T06:33:24.538Z,7.90
2022-10-25T06:34:29.590Z,8.00
2022-10-25T06:35:31.438Z,7.90
2022-10-25T06:36:33.241Z,8.00
2022-10-25T06:37:34.905Z,7.90
2022-10-25T06:38:36.586Z,8.00
2022-10-25T06:39:38.257Z,7.90
2022-10-25T06:40:39.929Z,8.00
2022-10-25T06:41:41.727Z,8.00
2022-10-25T06:42:43.847Z,8.00
2022-10-25T06:43:45.778Z,8.00
2022-10-25T06:44:47.477Z,8.10
2022-10-25T06:45:49.228Z,8.10
2022-10-25T06:48:12.651Z,8.10
2022-10-25T06:49:14.356Z,8.20
2022-10-25T06:50:16.439Z,8.20
2022-10-25T06:51:18.862Z,8.20
2022-10-25T06:52:20.529Z,8.20
2022-10-25T06:53:22.265Z,8.20
2022-10-25T06:54:25.494Z,8.20
2022-10-25T06:55:27.174Z,8.20
2022-10-25T06:56:29.370Z,8.20
2022-10-25T06:57:31.123Z,8.20
2022-10-25T06:58:34.350Z,8.20
2022-10-25T06:59:36.050Z,8.30
2022-10-25T07:00:37.718Z,8.30
2022-10-25T07:01:39.498Z,8.30
2022-10-25T07:02:41.254Z,8.40
2022-10-25T07:03:43.615Z,8.40
2022-10-25T07:04:45.307Z,8.40
2022-10-25T07:05:47.019Z,8.40
2022-10-25T07:06:51.408Z,8.50
2022-10-25T07:07:56.119Z,8.40
2022-10-25T07:09:01.498Z,8.50
2022-10-25T07:10:03.400Z,8.50
2022-10-25T07:11:05.932Z,8.50
2022-10-25T07:12:12.278Z,8.50
2022-10-25T07:13:14.338Z,8.60
2022-10-25T07:14:16.103Z,8.60
2022-10-25T07:16:25.589Z,8.60
2022-10-25T07:17:27.530Z,8.70
2022-10-25T07:18:30.439Z,8.70
2022-10-25T07:19:32.101Z,8.70
2022-10-25T07:20:33.835Z,8.70
2022-10-25T07:21:35.834Z,8.80
2022-10-25T07:22:37.486Z,8.80
2022-10-25T07:23:42.478Z,8.80
2022-10-25T07:24:44.247Z,8.80
2022-10-25T07:25:46.065Z,8.90
2022-10-25T07:26:47.751Z,8.90
2022-10-25T07:27:49.673Z,8.90
2022-10-25T07:28:53.759Z,9.00
2022-10-25T07:29:55.414Z,9.00
2022-10-25T07:30:57.083Z,9.00
2022-10-25T07:31:58.874Z,9.00
2022-10-25T07:33:03.061Z,9.10
2022-10-25T07:34:06.182Z,9.10
2022-10-25T07:35:08.234Z,9.20
2022-10-25T07:36:11.454Z,9.30
2022-10-25T07:37:13.590Z,9.30
2022-10-25T07:38:16.049Z,9.40
2022-10-25T07:39:17.807Z,9.40
2022-10-25T07:40:19.467Z,9.40
2022-10-25T07:41:21.143Z,9.50
2022-10-25T07:42:22.828Z,9.50
2022-10-25T07:43:26.375Z,9.50
2022-10-25T07:44:28.022Z,9.60
2022-10-25T07:45:31.207Z,9.70
2022-10-25T07:46:33.027Z,9.70
2022-10-25T07:47:34.680Z,9.80
2022-10-25T07:48:37.094Z,9.80
2022-10-25T07:49:39.895Z,9.90
2022-10-25T07:50:41.644Z,9.90
2022-10-25T07:51:43.411Z,9.90
2022-10-25T07:52:45.576Z,10.00
2022-10-25T07:53:47.621Z,10.00
2022-10-25T07:54:49.301Z,10.10
2022-10-25T07:55:52.312Z,10.10
2022-10-25T07:56:53.968Z,10.20
2022-10-25T07:58:06.640Z,10.20
2022-10-25T07:59:08.305Z,10.20
2022-10-25T08:00:10.681Z,10.30
2022-10-25T08:01:21.243Z,10.30
2022-10-25T08:02:26.137Z,10.40
2022-10-25T08:03:28.103Z,10.40
2022-10-25T08:04:32.737Z,10.40
2022-10-25T08:05:34.815Z,10.40
2022-10-25T08:06:36.559Z,10.50
2022-10-25T08:07:38.231Z,10.50
2022-10-25T08:08:39.889Z,10.50
2022-10-25T08:09:41.553Z,10.60
2022-10-25T08:10:44.054Z,10.60
2022-10-25T08:11:45.703Z,10.60
2022-10-25T08:12:50.600Z,10.60
2022-10-25T08:13:52.259Z,10.70
2022-10-25T08:14:53.901Z,10.70
2022-10-25T08:15:56.650Z,10.70
2022-10-25T08:16:58.368Z,10.80
2022-10-25T08:18:01.740Z,10.80
2022-10-25T08:19:03.474Z,10.80
2022-10-25T08:20:05.741Z,10.90
2022-10-25T08:21:07.440Z,10.90
2022-10-25T08:22:09.460Z,10.90
2022-10-25T08:23:11.249Z,11.00
2022-10-25T08:24:13.019Z,11.00
2022-10-25T08:25:15.195Z,11.00
2022-10-25T08:26:17.031Z,11.00
2022-10-25T08:27:18.763Z,11.10
2022-10-25T08:28:20.911Z,11.20
2022-10-25T08:29:22.603Z,11.20
2022-10-25T08:30:24.534Z,11.30
2022-10-25T08:31:26.219Z,11.30
2022-10-25T08:32:29.494Z,11.40
2022-10-25T08:33:31.667Z,11.50
2022-10-25T08:34:33.472Z,11.50
2022-10-25T08:35:35.188Z,11.50
2022-10-25T08:36:37.027Z,11.50
2022-10-25T08:37:38.715Z,11.60
2022-10-25T08:38:40.451Z,11.60
2022-10-25T08:39:42.174Z,11.60
2022-10-25T08:41:06.769Z,11.70
2022-10-25T08:42:20.116Z,11.70
2022-10-25T08:43:48.436Z,11.80
2022-10-25T08:45:17.830Z,11.80
2022-10-25T08:46:26.147Z,11.90
2022-10-25T08:47:43.151Z,12.00
2022-10-25T08:48:48.928Z,12.00
2022-10-25T08:50:23.184Z,12.00
2022-10-25T08:51:33.844Z,12.10
2022-10-25T08:52:59.188Z,12.10
2022-10-25T08:54:05.184Z,12.20
2022-10-25T08:55:15.184Z,12.30
2022-10-25T08:56:19.097Z,12.30
2022-10-25T08:57:27.372Z,12.30
2022-10-25T08:58:36.585Z,12.30
2022-10-25T08:59:41.211Z,12.40
2022-10-25T09:00:45.360Z,12.40
2022-10-25T09:01:54.390Z,12.50
2022-10-25T09:02:58.435Z,12.50
2022-10-25T09:04:00.526Z,12.60
2022-10-25T09:05:02.335Z,12.60
2022-10-25T09:06:29.874Z,12.60
2022-10-25T09:07:50.410Z,12.70
2022-10-25T09:09:14.217Z,12.70
2022-10-25T09:10:27.148Z,12.70
2022-10-25T09:11:59.328Z,12.80
2022-10-25T09:13:55.089Z,12.90
2022-10-25T09:15:46.143Z,13.00
2022-10-25T09:17:04.217Z,13.00
2022-10-25T09:18:17.113Z,13.10
2022-10-25T09:19:34.425Z,13.10
2022-10-25T09:20:47.785Z,13.20
2022-10-25T09:22:26.473Z,13.20
2022-10-25T09:23:30.996Z,13.30
2022-10-25T09:24:43.927Z,13.30
2022-10-25T09:26:09.132Z,13.30
2022-10-25T09:27:18.096Z,13.30
2022-10-25T09:28:52.515Z,13.40
2022-10-25T09:30:08.925Z,13.40
2022-10-25T09:31:18.366Z,13.50
2022-10-25T09:32:54.086Z,13.50
2022-10-25T09:34:05.515Z,13.60
2022-10-25T09:35:33.036Z,13.60
2022-10-25T09:36:42.729Z,13.60
2022-10-25T09:37:58.013Z,13.70
2022-10-25T09:39:03.006Z,13.70
2022-10-25T09:40:11.437Z,13.70
2022-10-25T09:41:17.918Z,13.70
2022-10-25T09:42:37.545Z,13.70
2022-10-25T09:44:04.668Z,13.70
2022-10-25T09:45:30.296Z,13.70
2022-10-25T09:46:36.969Z,13.80
2022-10-25T09:48:05.220Z,13.80
2022-10-25T09:49:33.915Z,13.80
2022-10-25T09:50:47.756Z,13.80
2022-10-25T09:52:23.875Z,13.80
2022-10-25T09:53:25.569Z,13.80
2022-10-25T09:54:55.032Z,13.90
2022-10-25T09:56:03.089Z,13.90
2022-10-25T09:57:04.922Z,13.90
2022-10-25T09:58:09.521Z,13.90
2022-10-25T09:59:15.115Z,13.90
2022-10-25T10:00:16.971Z,13.90
2022-10-25T10:01:25.604Z,14.00
2022-10-25T10:02:27.618Z,14.00
2022-10-25T10:03:31.948Z,14.00
2022-10-25T10:04:38.812Z,14.00
2022-10-25T10:05:46.158Z,14.00
2022-10-25T10:06:49.057Z,14.00
2022-10-25T10:07:51.636Z,14.00
2022-10-25T10:08:57.959Z,14.00
2022-10-25T10:10:04.142Z,14.00
2022-10-25T10:11:07.104Z,14.10
2022-10-25T10:12:35.746Z,14.10
2022-10-25T10:13:42.671Z,14.10
2022-10-25T10:15:01.377Z,14.10
2022-10-25T10:16:11.075Z,14.10
2022-10-25T10:17:17.228Z,14.10
2022-10-25T10:18:29.592Z,14.10
2022-10-25T10:19:31.462Z,14.10
2022-10-25T10:20:33.228Z,14.10
2022-10-25T10:21:36.985Z,14.10
2022-10-25T10:22:46.256Z,14.20
2022-10-25T10:23:52.137Z,14.20
2022-10-25T10:25:01.030Z,14.30
2022-10-25T10:26:21.356Z,14.30
2022-10-25T10:27:27.162Z,14.30
2022-10-25T10:28:29.069Z,14.30
2022-10-25T10:29:37.114Z,14.40
2022-10-25T10:30:39.392Z,14.40
2022-10-25T10:31:44.574Z,14.40
2022-10-25T10:32:46.404Z,14.40
2022-10-25T10:33:52.028Z,14.40
2022-10-25T10:34:56.711Z,14.40
2022-10-25T10:36:22.804Z,14.40
2022-10-25T10:37:29.351Z,14.40
2022-10-25T10:38:31.101Z,14.40
2022-10-25T10:39:33.435Z,14.40
2022-10-25T10:40:35.139Z,14.50
2022-10-25T10:42:02.934Z,14.50
2022-10-25T10:43:28.776Z,14.60
2022-10-25T10:44:34.536Z,14.60
2022-10-25T10:45:36.401Z,14.60
2022-10-25T10:46:47.439Z,14.60
2022-10-25T10:47:52.155Z,14.60
2022-10-25T10:48:56.215Z,14.70
2022-10-25T10:49:58.252Z,14.70
2022-10-25T10:51:00.477Z,14.80
2022-10-25T10:52:03.242Z,14.80
2022-10-25T10:53:17.747Z,14.80
2022-10-25T10:54:28.024Z,14.90
2022-10-25T10:55:32.923Z,14.90
2022-10-25T10:56:34.650Z,15.00
2022-10-25T10:57:36.990Z,15.00
2022-10-25T10:58:40.919Z,15.00
2022-10-25T10:59:53.560Z,15.10
2022-10-25T11:01:01.453Z,15.10
2022-10-25T11:02:25.346Z,15.10
2022-10-25T11:03:53.549Z,15.20
2022-10-25T11:05:02.552Z,15.20
2022-10-25T11:06:13.280Z,15.30
2022-10-25T11:07:28.777Z,15.40
2022-10-25T11:08:30.455Z,15.40
2022-10-25T11:09:32.191Z,15.40
2022-10-25T11:10:35.645Z,15.50
2022-10-25T11:11:37.434Z,15.50
2022-10-25T11:12:41.278Z,15.50
2022-10-25T11:13:57.695Z,15.50
2022-10-25T11:14:59.363Z,15.50
2022-10-25T11:16:14.999Z,15.50
2022-10-25T11:17:27.601Z,15.50
2022-10-25T11:18:49.983Z,15.60
2022-10-25T11:19:54.524Z,15.60
2022-10-25T11:21:17.119Z,15.60
2022-10-25T11:22:36.348Z,15.60
2022-10-25T11:23:51.825Z,15.60
2022-10-25T11:25:08.618Z,15.70
2022-10-25T11:26:23.214Z,15.80
2022-10-25T11:27:35.137Z,15.80
2022-10-25T11:28:46.440Z,15.90
2022-10-25T11:30:03.916Z,15.90
2022-10-25T11:31:08.317Z,16.00
2022-10-25T11:32:30.504Z,16.10
2022-10-25T11:33:44.184Z,16.20
2022-10-25T11:34:59.057Z,16.30
2022-10-25T11:36:25.607Z,16.40
2022-10-25T11:37:42.713Z,16.50
2022-10-25T11:38:58.530Z,16.60
2022-10-25T11:40:15.438Z,16.80
2022-10-25T11:41:40.287Z,16.90
2022-10-25T11:42:41.939Z,17.00
2022-10-25T11:43:55.187Z,17.10
2022-10-25T11:45:05.893Z,17.30
2022-10-25T11:46:22.270Z,17.40
2022-10-25T11:47:43.320Z,17.50
2022-10-25T11:48:57.035Z,17.60
2022-10-25T11:49:58.698Z,17.70
2022-10-25T11:51:21.635Z,17.80
2022-10-25T11:52:37.883Z,18.00
2022-10-25T11:53:57.812Z,18.00
2022-10-25T11:55:18.535Z,18.10
2022-10-25T11:56:51.982Z,18.20
2022-10-25T11:58:20.316Z,18.20
2022-10-25T12:00:00.964Z,18.30
2022-10-25T12:01:29.609Z,18.40
2022-10-25T12:02:43.634Z,18.40
2022-10-25T12:03:55.861Z,18.30
2022-10-25T12:05:23.294Z,18.30
2022-10-25T12:06:43.859Z,18.20
2022-10-25T12:08:33.461Z,18.20
2022-10-25T12:09:44.606Z,18.20
2022-10-25T12:10:56.228Z,18.10
2022-10-25T12:12:03.984Z,18.10
2022-10-25T12:13:18.133Z,18.00
2022-10-25T12:14:42.938Z,18.00
2022-10-25T12:15:47.627Z,17.90
2022-10-25T12:16:50.186Z,17.80
2022-10-25T12:17:53.087Z,17.80
2022-10-25T12:19:08.977Z,17.80
2022-10-25T12:20:22.657Z,17.80
2022-10-25T12:21:36.218Z,17.80
2022-10-25T12:22:42.939Z,17.70
2022-10-25T12:23:48.981Z,17.70
2022-10-25T12:25:01.517Z,17.70
2022-10-25T12:26:11.005Z,17.60
2022-10-25T12:27:13.657Z,17.60
2022-10-25T12:28:40.459Z,17.60
2022-10-25T12:29:47.198Z,17.50
2022-10-25T12:30:50.601Z,17.50
2022-10-25T12:32:03.111Z,17.50
2022-10-25T12:33:29.318Z,17.50
2022-10-25T12:34:53.691Z,17.50
2022-10-25T12:36:01.836Z,17.40
2022-10-25T12:37:08.152Z,17.50
2022-10-25T12:38:18.901Z,17.60
2022-10-25T12:39:25.965Z,17.60
2022-10-25T12:40:29.167Z,17.60
2022-10-25T12:41:36.130Z,17.60
2022-10-25T12:42:45.004Z,17.60
2022-10-25T12:44:11.255Z,17.60
2022-10-25T12:45:37.613Z,17.70
2022-10-25T12:46:59.396Z,17.80
2022-10-25T12:48:07.070Z,17.80
2022-10-25T12:49:18.825Z,17.80
2022-10-25T12:50:38.515Z,17.80
2022-10-25T12:52:04.504Z,17.90
2022-10-25T12:53:40.511Z,17.90
2022-10-25T12:55:09.947Z,18.00
2022-10-25T12:56:43.091Z,18.10
2022-10-25T12:58:17.478Z,18.10
2022-10-25T12:59:49.053Z,18.10
2022-10-25T13:01:34.688Z,18.20
2022-10-25T13:03:24.334Z,18.20
2022-10-25T13:04:44.177Z,18.20
2022-10-25T13:06:08.867Z,18.20
2022-10-25T13:07:13.308Z,18.10
2022-10-25T13:08:18.948Z,18.10
2022-10-25T13:09:26.931Z,18.10
2022-10-25T13:10:34.060Z,18.00
2022-10-25T13:11:42.251Z,18.00
2022-10-25T13:13:08.125Z,18.00
2022-10-25T13:14:22.432Z,18.00
2022-10-25T13:15:24.962Z,18.00
2022-10-25T13:16:29.950Z,18.00
2022-10-25T13:17:40.627Z,18.10
2022-10-25T13:18:47.720Z,18.10
2022-10-25T13:20:15.654Z,18.10
2022-10-25T13:21:53.396Z,18.00
2022-10-25T13:22:56.063Z,18.00
2022-10-25T13:24:00.312Z,18.00
2022-10-25T13:25:23.549Z,18.00
2022-10-25T13:26:30.506Z,17.90
2022-10-25T13:27:33.738Z,17.90
2022-10-25T13:28:45.110Z,17.90
2022-10-25T13:30:08.608Z,17.90
2022-10-25T13:31:35.255Z,17.80
2022-10-25T13:32:41.729Z,17.70
2022-10-25T13:33:43.480Z,17.70
2022-10-25T13:34:45.962Z,17.70
2022-10-25T13:35:50.750Z,17.60
2022-10-25T13:37:01.001Z,17.60
2022-10-25T13:38:13.940Z,17.60
2022-10-25T13:39:21.683Z,17.50
2022-10-25T13:40:26.646Z,17.50
2022-10-25T13:41:45.924Z,17.50
2022-10-25T13:42:50.400Z,17.40
2022-10-25T13:44:04.166Z,17.40
2022-10-25T13:45:08.447Z,17.40
2022-10-25T13:46:11.383Z,17.30
2022-10-25T13:47:45.259Z,17.20
2022-10-25T13:48:47.133Z,17.20
2022-10-25T13:49:52.191Z,17.20
2022-10-25T13:51:07.146Z,17.10
2022-10-25T13:52:26.328Z,17.10
2022-10-25T13:53:39.355Z,17.10
2022-10-25T13:54:51.094Z,17.10
2022-10-25T13:56:13.909Z,17.10
2022-10-25T13:57:49.739Z,17.10
2022-10-25T13:58:58.981Z,17.10
2022-10-25T14:00:02.323Z,17.10
2022-10-25T14:01:16.310Z,17.10
2022-10-25T14:02:21.041Z,17.10
2022-10-25T14:03:35.454Z,17.10
2022-10-25T14:04:38.299Z,17.10
2022-10-25T14:05:55.268Z,17.10
2022-10-25T14:07:35.710Z,17.10
2022-10-25T14:08:49.746Z,17.10
2022-10-25T14:09:53.775Z,17.10
2022-10-25T14:11:00.326Z,17.10
2022-10-25T14:12:01.997Z,17.10
2022-10-25T14:13:14.497Z,17.10
2022-10-25T14:14:28.337Z,17.10
2022-10-25T14:15:43.500Z,17.00
2022-10-25T14:17:08.451Z,17.00
2022-10-25T14:18:18.204Z,17.00
2022-10-25T14:19:37.751Z,16.90
2022-10-25T14:20:39.754Z,16.90
2022-10-25T14:21:47.031Z,16.80
2022-10-25T14:23:00.305Z,16.80
2022-10-25T14:24:10.672Z,16.80
2022-10-25T14:25:27.855Z,16.70
2022-10-25T14:26:29.785Z,16.70
2022-10-25T14:27:33.205Z,16.60
2022-10-25T14:28:35.943Z,16.60
2022-10-25T14:29:37.739Z,16.60
2022-10-25T14:30:44.486Z,16.60
2022-10-25T14:31:46.310Z,16.60
2022-10-25T14:33:20.428Z,16.60
2022-10-25T14:34:28.424Z,16.60
2022-10-25T14:35:46.176Z,16.60
2022-10-25T14:36:53.047Z,16.60
2022-10-25T14:37:55.296Z,16.50
2022-10-25T14:38:59.738Z,16.40
2022-10-25T14:40:01.610Z,16.30
2022-10-25T14:41:11.809Z,16.30
2022-10-25T14:42:17.195Z,16.30
2022-10-25T14:43:35.998Z,16.20
2022-10-25T14:44:50.107Z,16.20
2022-10-25T14:46:16.051Z,16.20
2022-10-25T14:47:29.660Z,16.10
2022-10-25T14:48:32.380Z,16.00
2022-10-25T14:49:34.092Z,15.90
2022-10-25T14:50:37.411Z,15.90
2022-10-25T14:51:42.131Z,15.90
2022-10-25T14:52:49.411Z,15.80
2022-10-25T14:54:07.710Z,15.80
2022-10-25T14:55:30.747Z,15.70